釧路空港の過去48時間の天気

釧路空港 (Kushiro)

現在時刻: 10/16 15:49 JST (10/16 06:49 UTC) 以下の時間は現地時間です。

過去48時間のMETAR気象情報
時間 風向 風速(m/s) 視程 気温(℃) 湿度(%) 気圧(hPa) 天気現象
16 15:00 6 10km以上 14 82 1010
16 14:00 6 10km以上 14 82 1010
16 13:00 4 10km以上 15 77 1011
16 12:00 4 10km以上 14 82 1011
16 11:00 3 10km以上 13 88 1012
16 10:00 南南西 3 10km以上 14 82 1013
16 09:00 2 10km以上 13 82 1014
16 08:11 北北西 3 10km以上 11 94 1014
16 08:00 北北西 3 10km以上 11 94 1014
16 07:00 北西 3 8000m 10 94 1014
16 06:45 北西 3 8000m 10 94 1014
15 20:00 不定 1 10km以上 9 93 1017
15 19:00 不定 1 10km以上 8 93 1017
15 18:00 南西 1 10km以上 11 82 1017
15 17:00 南南西 4 10km以上 11 76 1017
15 16:00 5 10km以上 13 72 1017
15 15:00 5 10km以上 13 77 1017
15 14:00 5 10km以上 14 72 1017
15 13:00 南南西 5 10km以上 13 72 1017
15 12:00 5 10km以上 14 72 1018
15 11:00 5 10km以上 14 67 1019
15 10:00 南南西 4 10km以上 14 67 1019
15 09:00 北東 2 10km以上 13 77 1020
15 08:00 1 10km以上 9 87 1020
15 07:00 北北西 2 10km以上 7 93 1020
15 06:45 北北西 2 10km以上 7 93 1019
14 20:00 北西 2 10km以上 10 94 1021
14 19:00 不定 1 10km以上 11 82 1022
14 18:00 南南西 2 10km以上 11 82 1022
14 17:00 南南西 2 10km以上 12 77 1022
14 16:00 4 10km以上 13 72 1021
RJCK 160600Z 19011KT 9999 FEW020 SCT/// 14/11 Q1010
RJCK 160500Z 17011KT 9999 FEW020 SCT/// 14/11 Q1010
RJCK 160400Z 19008KT 9999 FEW015 BKN/// 15/11 Q1011
RJCK 160300Z 18007KT 160V220 9999 FEW010 BKN080 14/11 Q1011
RJCK 160200Z 18006KT 9999 FEW010 BKN080 13/11 Q1012
RJCK 160100Z 20005KT 180V240 9999 FEW010 SCT015 BKN100 14/11 Q1013
RJCK 160000Z 36003KT 260V070 9999 FEW010 BKN015 13/10 Q1014
RJCK 152311Z 34005KT 9999 FEW007 SCT009 BKN015 11/10 Q1014 RMK 1ST007 4ST009 6ST015 A2996
RJCK 152300Z 34005KT 9999 FEW007 BKN009 BKN015 11/10 Q1014
RJCK 152200Z 32005KT 8000 FEW003 SCT005 BKN009 10/09 Q1014
RJCK 152145Z 32005KT 8000 FEW002 SCT005 BKN008 10/09 Q1014 RMK 1ST002 3ST005 6ST008 A2995
RJCK 151100Z VRB02KT 9999 FEW020 BKN030 09/08 Q1017
RJCK 151000Z VRB02KT 9999 FEW020 08/07 Q1017
RJCK 150900Z 22002KT 9999 FEW020 11/08 Q1017
RJCK 150800Z 20007KT 9999 FEW020 SCT080 11/07 Q1017
RJCK 150700Z 19010KT 9999 FEW020 BKN080 13/08 Q1017
RJCK 150600Z 19009KT 9999 FEW020 BKN070 13/09 Q1017
RJCK 150500Z 19010KT 9999 FEW020 SCT080 14/09 Q1017
RJCK 150400Z 20010KT 9999 FEW020 SCT080 13/08 Q1017
RJCK 150300Z 19010KT 9999 FEW020 14/09 Q1018
RJCK 150200Z 19009KT 150V240 9999 FEW020 14/08 Q1019
RJCK 150100Z 20007KT 160V240 9999 FEW020 14/08 Q1019
RJCK 150000Z 04003KT 340V160 9999 FEW020 13/09 Q1020
RJCK 142300Z 35002KT 9999 FEW020 SCT/// 09/07 Q1020
RJCK 142200Z 34004KT 9999 FEW030 BKN/// 07/06 Q1020
RJCK 142145Z 33004KT 9999 FEW030 BKN/// 07/06 Q1019 RMK 1CU030 A3012
RJCK 141100Z 31004KT 9999 FEW025 BKN050 10/09 Q1021
RJCK 141000Z VRB02KT 9999 FEW025 BKN050 11/08 Q1022
RJCK 140900Z 20004KT 9999 FEW025 SCT050 11/08 Q1022
RJCK 140800Z 21003KT 9999 FEW015 SCT025 12/08 Q1022
RJCK 140700Z 17007KT 9999 FEW020 13/08 Q1021